createdAt,value
2023-08-17T00:02:28.834Z,19.94
2023-08-17T00:05:30.440Z,19.95
2023-08-17T00:08:31.958Z,19.95
2023-08-17T00:11:33.581Z,19.97
2023-08-17T00:14:35.316Z,19.96
2023-08-17T00:17:36.919Z,19.97
2023-08-17T00:20:38.476Z,20.00
2023-08-17T00:23:40.048Z,19.97
2023-08-17T00:26:41.687Z,20.00
2023-08-17T00:29:43.278Z,19.99
2023-08-17T00:32:44.943Z,20.01
2023-08-17T00:35:46.616Z,20.00
2023-08-17T00:38:48.214Z,20.00
2023-08-17T00:41:49.808Z,20.00
2023-08-17T00:44:51.381Z,20.00
2023-08-17T00:47:53.001Z,20.02
2023-08-17T00:50:54.766Z,20.02
2023-08-17T00:53:56.472Z,20.03
2023-08-17T00:56:58.051Z,20.02
2023-08-17T01:00:05.490Z,20.01
2023-08-17T01:03:07.999Z,20.00
2023-08-17T01:06:09.614Z,20.01
2023-08-17T01:09:11.225Z,20.01
2023-08-17T01:12:12.822Z,20.01
2023-08-17T01:15:14.394Z,19.99
2023-08-17T01:18:15.928Z,20.00
2023-08-17T01:21:17.631Z,19.99
2023-08-17T01:24:19.176Z,19.98
2023-08-17T01:27:20.747Z,20.00
2023-08-17T01:30:22.459Z,19.98
2023-08-17T01:33:24.088Z,20.00
2023-08-17T01:36:25.694Z,20.02
2023-08-17T01:39:27.270Z,20.01
2023-08-17T01:42:28.856Z,20.02
2023-08-17T01:45:30.453Z,20.03
2023-08-17T01:48:32.039Z,20.02
2023-08-17T01:51:33.655Z,20.02
2023-08-17T01:54:35.483Z,19.99
2023-08-17T01:57:37.080Z,19.98
2023-08-17T02:00:38.732Z,19.98
2023-08-17T02:03:40.394Z,19.99
2023-08-17T02:06:42.034Z,20.00
2023-08-17T02:09:43.594Z,20.00
2023-08-17T02:12:45.199Z,20.00
2023-08-17T02:15:47.318Z,20.00
2023-08-17T02:18:48.917Z,19.98
2023-08-17T02:21:50.569Z,20.00
2023-08-17T02:24:52.133Z,19.97
2023-08-17T02:27:53.740Z,19.97
2023-08-17T02:30:55.321Z,19.98
2023-08-17T02:33:57.034Z,19.96
2023-08-17T02:36:58.662Z,19.98
2023-08-17T02:40:00.442Z,20.00
2023-08-17T02:43:02.028Z,19.98
2023-08-17T02:46:03.623Z,19.97
2023-08-17T02:49:05.178Z,19.95
2023-08-17T02:52:06.854Z,19.96
2023-08-17T02:55:08.431Z,19.96
2023-08-17T02:58:10.125Z,19.96
2023-08-17T03:01:11.765Z,19.96
2023-08-17T03:04:13.436Z,19.97
2023-08-17T03:07:15.111Z,19.97
2023-08-17T03:10:16.694Z,19.96
2023-08-17T03:13:18.559Z,19.95
2023-08-17T03:16:20.185Z,19.96
2023-08-17T03:19:21.812Z,19.96
2023-08-17T03:22:23.446Z,19.95
2023-08-17T03:25:25.049Z,19.96
2023-08-17T03:28:26.775Z,19.95
2023-08-17T03:31:28.388Z,19.93
2023-08-17T03:34:30.046Z,19.92
2023-08-17T03:37:31.618Z,19.93
2023-08-17T03:40:33.200Z,19.93
2023-08-17T03:43:34.832Z,19.90
2023-08-17T03:46:36.404Z,19.91
2023-08-17T03:49:38.189Z,19.89
2023-08-17T03:52:39.809Z,19.89
2023-08-17T03:55:41.420Z,19.92
2023-08-17T03:58:42.955Z,19.91
2023-08-17T04:01:44.597Z,19.89
2023-08-17T04:04:46.259Z,19.90
2023-08-17T04:07:47.940Z,19.91
2023-08-17T04:10:49.505Z,19.89
2023-08-17T04:13:51.156Z,19.88
2023-08-17T04:16:52.750Z,19.91
2023-08-17T04:19:54.472Z,19.89
2023-08-17T04:22:56.129Z,19.89
2023-08-17T04:25:57.735Z,19.88
2023-08-17T04:28:59.324Z,19.88
2023-08-17T04:32:00.996Z,19.90
2023-08-17T04:35:02.575Z,19.88
2023-08-17T04:38:04.182Z,19.88
2023-08-17T04:41:05.769Z,19.89
2023-08-17T04:44:07.437Z,19.90
2023-08-17T04:47:09.019Z,19.87
2023-08-17T04:50:10.636Z,19.87
2023-08-17T04:53:12.198Z,19.87
2023-08-17T04:56:13.885Z,19.85
2023-08-17T04:59:15.529Z,19.87
2023-08-17T05:02:17.318Z,19.87
2023-08-17T05:05:18.970Z,19.88
2023-08-17T05:08:20.572Z,19.87
2023-08-17T05:11:22.200Z,19.89
2023-08-17T05:14:23.811Z,19.91
2023-08-17T05:17:25.623Z,19.91
2023-08-17T05:20:27.457Z,19.90
2023-08-17T05:23:29.004Z,19.89
2023-08-17T05:26:30.668Z,19.92
2023-08-17T05:29:32.252Z,19.91
2023-08-17T05:32:33.857Z,19.89
2023-08-17T05:35:35.505Z,19.89
2023-08-17T05:38:37.094Z,19.91
2023-08-17T05:41:38.745Z,19.92
2023-08-17T05:44:40.332Z,19.91
2023-08-17T05:47:41.958Z,19.92
2023-08-17T05:50:43.622Z,19.94
2023-08-17T05:53:45.223Z,19.94
2023-08-17T05:56:46.824Z,19.96
2023-08-17T05:59:48.414Z,19.96
2023-08-17T06:02:50.091Z,19.96
2023-08-17T06:05:51.714Z,19.97
2023-08-17T06:08:53.293Z,19.96
2023-08-17T06:11:54.923Z,19.96
2023-08-17T06:14:56.501Z,19.96
2023-08-17T06:17:58.171Z,19.96
2023-08-17T06:21:04.043Z,19.95
2023-08-17T06:24:05.699Z,20.00
2023-08-17T06:27:07.280Z,20.00
2023-08-17T06:30:08.881Z,19.99
2023-08-17T06:33:10.551Z,19.97
2023-08-17T06:36:12.262Z,19.98
2023-08-17T06:39:13.831Z,19.97
2023-08-17T06:42:15.565Z,19.97
2023-08-17T06:45:17.254Z,20.01
2023-08-17T06:48:18.884Z,19.99
2023-08-17T06:51:20.464Z,19.98
2023-08-17T06:54:22.052Z,20.00
2023-08-17T06:57:23.807Z,19.98
2023-08-17T07:00:25.573Z,20.01
2023-08-17T07:03:27.287Z,20.04
2023-08-17T07:06:29.058Z,20.02
2023-08-17T07:09:30.736Z,20.04
2023-08-17T07:12:32.343Z,20.03
2023-08-17T07:15:33.946Z,20.07
2023-08-17T07:18:35.650Z,20.07
2023-08-17T07:21:37.359Z,20.08
2023-08-17T07:24:38.978Z,20.05
2023-08-17T07:27:40.535Z,20.06
2023-08-17T07:30:42.172Z,20.11
2023-08-17T07:33:43.832Z,20.09
2023-08-17T07:36:45.467Z,20.07
2023-08-17T07:39:47.022Z,20.08
2023-08-17T07:42:48.685Z,20.08
2023-08-17T07:45:50.396Z,20.09
2023-08-17T07:48:52.092Z,20.09
2023-08-17T07:51:53.705Z,20.12
2023-08-17T07:54:55.288Z,20.11
2023-08-17T07:57:56.896Z,20.10
2023-08-17T08:00:58.464Z,20.13
2023-08-17T08:04:00.297Z,20.12
2023-08-17T08:07:01.924Z,20.11
2023-08-17T08:10:03.581Z,20.11
2023-08-17T08:13:05.167Z,20.13
2023-08-17T08:16:06.844Z,20.14
2023-08-17T08:19:08.484Z,20.13
2023-08-17T08:22:10.126Z,20.13
2023-08-17T08:25:11.691Z,20.16
2023-08-17T08:28:13.377Z,20.20
2023-08-17T08:31:15.043Z,20.21
2023-08-17T08:34:16.649Z,20.17
2023-08-17T08:37:18.210Z,20.20
2023-08-17T08:40:19.813Z,20.23
2023-08-17T08:43:21.455Z,20.23
2023-08-17T08:46:23.046Z,20.16
2023-08-17T08:49:24.684Z,20.20
2023-08-17T08:52:26.285Z,20.25
2023-08-17T08:55:27.858Z,20.28
2023-08-17T08:58:29.460Z,20.27
2023-08-17T09:01:31.123Z,20.27
2023-08-17T09:04:32.734Z,20.21
2023-08-17T09:07:34.392Z,20.23
2023-08-17T09:10:38.915Z,20.21
2023-08-17T09:13:40.960Z,20.14
2023-08-17T09:16:42.604Z,20.12
2023-08-17T09:19:44.230Z,20.20
2023-08-17T09:22:45.791Z,20.12
2023-08-17T09:25:47.542Z,20.18
2023-08-17T09:28:49.073Z,20.10
2023-08-17T09:31:50.743Z,20.17
2023-08-17T09:34:52.361Z,20.22
2023-08-17T09:37:54.004Z,20.25
2023-08-17T09:40:55.748Z,20.31
2023-08-17T09:43:57.367Z,20.35
2023-08-17T09:46:58.996Z,20.39
2023-08-17T09:50:00.658Z,20.23
2023-08-17T09:53:02.203Z,20.29
2023-08-17T09:56:03.805Z,20.31
2023-08-17T09:59:05.430Z,20.37
2023-08-17T10:02:06.984Z,20.36
2023-08-17T10:05:08.703Z,20.38
2023-08-17T10:08:10.451Z,20.36
2023-08-17T10:11:12.096Z,20.25
2023-08-17T10:14:13.706Z,20.28
2023-08-17T10:17:15.263Z,20.28
2023-08-17T10:20:16.919Z,20.19
2023-08-17T10:23:18.483Z,20.24
2023-08-17T10:26:20.081Z,20.37
2023-08-17T10:29:21.703Z,20.40
2023-08-17T10:32:23.292Z,20.39
2023-08-17T10:35:27.778Z,20.49
2023-08-17T10:38:29.420Z,20.29
2023-08-17T10:41:31.028Z,20.35
2023-08-17T10:44:32.587Z,20.29
2023-08-17T10:47:36.427Z,20.38
2023-08-17T10:50:42.935Z,20.40
2023-08-17T10:53:45.158Z,20.51
2023-08-17T10:56:47.176Z,20.52
2023-08-17T10:59:48.714Z,20.49
2023-08-17T11:02:50.437Z,20.43
2023-08-17T11:05:52.051Z,20.38
2023-08-17T11:08:53.623Z,20.46
2023-08-17T11:11:55.265Z,20.55
2023-08-17T11:15:00.012Z,20.61
2023-08-17T11:18:02.090Z,20.63
2023-08-17T11:21:03.683Z,20.66
2023-08-17T11:24:05.383Z,20.67
2023-08-17T11:27:06.947Z,20.66
2023-08-17T11:30:08.564Z,20.38
2023-08-17T11:33:10.307Z,20.48
2023-08-17T11:36:11.875Z,20.49
2023-08-17T11:39:13.468Z,20.42
2023-08-17T11:42:20.179Z,20.50
2023-08-17T11:45:27.706Z,20.46
2023-08-17T11:48:29.759Z,20.50
2023-08-17T11:51:31.517Z,20.40
2023-08-17T11:54:33.081Z,20.43
2023-08-17T11:57:34.739Z,20.43
2023-08-17T12:00:36.428Z,20.41
2023-08-17T12:03:38.115Z,20.32
2023-08-17T12:06:39.781Z,20.41
2023-08-17T12:09:41.427Z,20.40
2023-08-17T12:12:43.078Z,20.43
2023-08-17T12:15:44.841Z,20.33
2023-08-17T12:18:46.516Z,20.45
2023-08-17T12:21:48.243Z,20.43
2023-08-17T12:24:49.875Z,20.33
2023-08-17T12:27:51.511Z,20.23
2023-08-17T12:30:53.125Z,20.35
2023-08-17T12:33:54.819Z,20.22
2023-08-17T12:36:56.449Z,20.36
2023-08-17T12:39:58.061Z,20.35
2023-08-17T12:42:59.618Z,20.37
2023-08-17T12:46:01.245Z,20.31
2023-08-17T12:49:02.797Z,20.36
2023-08-17T12:52:04.364Z,20.37
2023-08-17T12:55:05.961Z,20.38
2023-08-17T12:58:07.580Z,20.33
2023-08-17T13:01:09.279Z,20.38
2023-08-17T13:04:10.922Z,20.40
2023-08-17T13:07:12.559Z,20.41
2023-08-17T13:10:14.219Z,20.39
2023-08-17T13:13:15.826Z,20.41
2023-08-17T13:16:17.430Z,20.41
2023-08-17T13:19:19.053Z,20.46
2023-08-17T13:22:20.660Z,20.49
2023-08-17T13:25:22.259Z,20.50
2023-08-17T13:28:23.815Z,20.58
2023-08-17T13:31:25.469Z,20.49
2023-08-17T13:34:27.123Z,20.56
2023-08-17T13:37:28.732Z,20.63
2023-08-17T13:40:30.450Z,20.60
2023-08-17T13:43:32.045Z,20.58
2023-08-17T13:46:33.717Z,20.67
2023-08-17T13:49:35.479Z,20.51
2023-08-17T13:52:37.085Z,20.57
2023-08-17T13:55:38.757Z,20.46
2023-08-17T13:58:40.317Z,20.52
2023-08-17T14:01:41.932Z,20.48
2023-08-17T14:04:43.578Z,20.44
2023-08-17T14:07:45.157Z,20.43
2023-08-17T14:10:46.787Z,20.46
2023-08-17T14:13:48.440Z,20.49
2023-08-17T14:16:50.012Z,20.49
2023-08-17T14:19:51.615Z,20.50
2023-08-17T14:22:53.385Z,20.42
2023-08-17T14:25:55.009Z,20.47
2023-08-17T14:28:56.617Z,20.52
2023-08-17T14:31:58.306Z,20.52
2023-08-17T14:34:59.921Z,20.49
2023-08-17T14:38:01.565Z,20.50
2023-08-17T14:41:03.246Z,20.46
2023-08-17T14:44:04.881Z,20.49
2023-08-17T14:47:06.462Z,20.46
2023-08-17T14:50:08.063Z,20.49
2023-08-17T14:53:09.703Z,20.49
2023-08-17T14:56:11.294Z,20.45
2023-08-17T14:59:12.989Z,20.48
2023-08-17T15:02:14.606Z,20.47
2023-08-17T15:05:16.307Z,20.49
2023-08-17T15:08:17.837Z,20.46
2023-08-17T15:11:19.413Z,20.49
2023-08-17T15:14:21.014Z,20.34
2023-08-17T15:17:22.654Z,20.46
2023-08-17T15:20:24.255Z,20.47
2023-08-17T15:23:25.856Z,20.48
2023-08-17T15:26:27.497Z,20.48
2023-08-17T15:29:29.180Z,20.46
2023-08-17T15:32:30.882Z,20.47
2023-08-17T15:35:32.532Z,20.49
2023-08-17T15:38:34.087Z,20.52
2023-08-17T15:41:35.732Z,20.58
2023-08-17T15:44:37.381Z,20.53
2023-08-17T15:47:39.040Z,20.52
2023-08-17T15:50:40.717Z,20.51
2023-08-17T15:53:42.279Z,20.49
2023-08-17T15:56:43.875Z,20.48
2023-08-17T15:59:45.580Z,20.49
2023-08-17T16:02:47.252Z,20.51
2023-08-17T16:05:49.011Z,20.51
2023-08-17T16:08:50.582Z,20.50
2023-08-17T16:11:52.140Z,20.54
2023-08-17T16:14:53.744Z,20.52
2023-08-17T16:18:00.758Z,20.51
2023-08-17T16:21:02.725Z,20.50
2023-08-17T16:24:04.517Z,20.53
2023-08-17T16:27:06.125Z,20.49
2023-08-17T16:30:07.813Z,20.52
2023-08-17T16:33:15.681Z,20.51
2023-08-17T16:36:17.760Z,20.54
2023-08-17T16:39:19.371Z,20.55
2023-08-17T16:42:21.015Z,20.56
2023-08-17T16:45:22.578Z,20.60
2023-08-17T16:48:25.249Z,20.57
2023-08-17T16:51:26.976Z,20.60
2023-08-17T16:54:28.602Z,20.62
2023-08-17T16:57:30.415Z,20.58
2023-08-17T17:00:32.047Z,20.57
2023-08-17T17:03:33.696Z,20.56
2023-08-17T17:06:35.321Z,20.55
2023-08-17T17:09:36.880Z,20.53
2023-08-17T17:12:38.475Z,20.55
2023-08-17T17:15:40.073Z,20.55
2023-08-17T17:18:41.736Z,20.55
2023-08-17T17:21:43.303Z,20.56
2023-08-17T17:24:44.885Z,20.55
2023-08-17T17:27:46.520Z,20.58
2023-08-17T17:30:48.132Z,20.59
2023-08-17T17:33:49.827Z,20.57
2023-08-17T17:36:51.437Z,20.57
2023-08-17T17:39:53.058Z,20.55
2023-08-17T17:42:54.677Z,20.54
2023-08-17T17:45:56.302Z,20.59
2023-08-17T17:48:57.951Z,20.58
2023-08-17T17:51:59.630Z,20.61
2023-08-17T17:55:01.314Z,20.61
2023-08-17T17:58:02.950Z,20.62
2023-08-17T18:01:04.643Z,20.60
2023-08-17T18:04:06.277Z,20.61
2023-08-17T18:07:07.867Z,20.60
2023-08-17T18:10:09.597Z,20.58
2023-08-17T18:13:11.167Z,20.57
2023-08-17T18:16:12.792Z,20.57
2023-08-17T18:19:15.271Z,20.56
2023-08-17T18:22:16.929Z,20.55
2023-08-17T18:25:18.634Z,20.55
2023-08-17T18:28:20.225Z,20.54
2023-08-17T18:31:21.969Z,20.56
2023-08-17T18:34:23.633Z,20.56
2023-08-17T18:37:25.281Z,20.55
2023-08-17T18:40:26.992Z,20.56
2023-08-17T18:43:28.584Z,20.56
2023-08-17T18:46:30.232Z,20.59
2023-08-17T18:49:31.846Z,20.59
2023-08-17T18:52:33.496Z,20.59
2023-08-17T18:55:35.150Z,20.61
2023-08-17T18:58:36.758Z,20.62
2023-08-17T19:01:38.363Z,20.62
2023-08-17T19:04:40.032Z,20.61
2023-08-17T19:07:41.662Z,20.62
2023-08-17T19:10:43.228Z,20.63
2023-08-17T19:13:44.834Z,20.65
2023-08-17T19:16:46.595Z,20.64
2023-08-17T19:19:48.258Z,20.63
2023-08-17T19:22:49.844Z,20.63
2023-08-17T19:25:51.547Z,20.63
2023-08-17T19:28:53.162Z,20.63
2023-08-17T19:31:54.833Z,20.62
2023-08-17T19:34:56.438Z,20.61
2023-08-17T19:37:58.113Z,20.61
2023-08-17T19:40:59.671Z,20.60
2023-08-17T19:44:01.294Z,20.60
2023-08-17T19:47:03.032Z,20.61
2023-08-17T19:50:04.694Z,20.60
2023-08-17T19:53:06.285Z,20.58
2023-08-17T19:56:08.022Z,20.58
2023-08-17T19:59:09.645Z,20.58
2023-08-17T20:02:11.218Z,20.58
2023-08-17T20:05:12.855Z,20.58
2023-08-17T20:08:14.483Z,20.59
2023-08-17T20:11:16.103Z,20.58
2023-08-17T20:14:18.518Z,20.59
2023-08-17T20:17:21.594Z,20.60
2023-08-17T20:20:23.222Z,20.60
2023-08-17T20:23:24.824Z,20.60
2023-08-17T20:26:26.541Z,20.59
2023-08-17T20:29:28.104Z,20.59
2023-08-17T20:32:29.742Z,20.60
2023-08-17T20:35:31.356Z,20.60
2023-08-17T20:38:32.964Z,20.59
2023-08-17T20:41:34.713Z,20.58
2023-08-17T20:44:36.416Z,20.58
2023-08-17T20:47:38.102Z,20.57
2023-08-17T20:50:39.722Z,20.58
2023-08-17T20:53:44.183Z,20.57
2023-08-17T20:56:45.829Z,20.57
2023-08-17T20:59:47.413Z,20.56
2023-08-17T21:02:49.138Z,20.56
2023-08-17T21:05:50.874Z,20.55
2023-08-17T21:08:52.808Z,20.55
2023-08-17T21:11:54.461Z,20.55
2023-08-17T21:14:56.043Z,20.55
2023-08-17T21:17:57.734Z,20.55
2023-08-17T21:20:59.416Z,20.55
2023-08-17T21:24:01.040Z,20.55
2023-08-17T21:27:02.658Z,20.55
2023-08-17T21:30:04.273Z,20.53
2023-08-17T21:33:05.961Z,20.54
2023-08-17T21:36:07.605Z,20.52
2023-08-17T21:39:09.182Z,20.51
2023-08-17T21:42:10.781Z,20.49
2023-08-17T21:45:12.377Z,20.47
2023-08-17T21:48:13.978Z,20.47
2023-08-17T21:51:15.738Z,20.44
2023-08-17T21:54:17.279Z,20.44
2023-08-17T21:57:18.925Z,20.43
2023-08-17T22:00:20.536Z,20.41
2023-08-17T22:03:22.246Z,20.40
2023-08-17T22:06:23.865Z,20.41
2023-08-17T22:09:25.491Z,20.39
2023-08-17T22:12:27.077Z,20.39
2023-08-17T22:15:28.637Z,20.38
2023-08-17T22:18:30.229Z,20.35
2023-08-17T22:21:31.821Z,20.34
2023-08-17T22:24:41.666Z,20.33
2023-08-17T22:27:51.258Z,20.29
2023-08-17T22:30:52.927Z,20.29
2023-08-17T22:33:54.635Z,20.30
2023-08-17T22:36:56.267Z,20.29
2023-08-17T22:39:57.884Z,20.27
2023-08-17T22:42:59.468Z,20.27
2023-08-17T22:46:01.114Z,20.28
2023-08-17T22:49:02.733Z,20.26
2023-08-17T22:52:04.328Z,20.26
2023-08-17T22:55:05.922Z,20.24
2023-08-17T22:58:07.505Z,20.23
2023-08-17T23:01:09.157Z,20.24
2023-08-17T23:04:10.758Z,20.20
2023-08-17T23:07:12.355Z,20.20
2023-08-17T23:10:14.005Z,20.20
2023-08-17T23:13:15.667Z,20.17
2023-08-17T23:16:17.298Z,20.20
2023-08-17T23:19:18.994Z,20.19
2023-08-17T23:22:20.614Z,20.17
2023-08-17T23:25:22.184Z,20.14
2023-08-17T23:28:23.758Z,20.14
2023-08-17T23:31:25.437Z,20.15
2023-08-17T23:34:27.046Z,20.13
2023-08-17T23:37:28.827Z,20.12
2023-08-17T23:40:30.720Z,20.10
2023-08-17T23:43:32.327Z,20.12
2023-08-17T23:46:33.902Z,20.12
2023-08-17T23:49:35.533Z,20.10
2023-08-17T23:52:37.110Z,20.09
2023-08-17T23:55:38.654Z,20.11
2023-08-17T23:58:40.240Z,20.13
